Terminal Aerodrome Forecast
Issued by NWS Raleigh/Durham, NC

Home | Current Version | Previous Version | Text Only | Print | Product List | Glossary On
Versions: 1 2 3 4 5 6 7 8 9 10 11 12 13 14 15 16 17 18 19 20 21 22 23 24 25 26 27 28 29 30 31 32 33 34 35 36 37 38 39 40 41 42 43 44 45 46 47 48 49 50
000
FTUS42 KRAH 270213 AAB
TAFFAY
TAF AMD
KFAY 270213Z 2702/2724 19007KT P6SM FEW045 BKN250
     FM271100 31009G18KT P6SM SCT025 OVC040
      TEMPO 2711/2713 3SM -SHRA SCT009 BKN015 OVC030
     FM271300 01012G24KT 5SM -RA BKN012 OVC040
      TEMPO 2713/2716 01018G28KT 2SM -RA BR BKN007 OVC012
     FM272200 34006KT P6SM SCT030 BKN150=

USA.gov is the U.S. government's official web portal to all federal, state and local government web resources and services.